Time;durP1;ratioP1;P1;durP2;ratioP2;P2;SDS_P1;SDS_P2;PMS_P1;PMS_P2;Temp;Humidity;BMP_temperature;BMP_pressure;BME280_temperature;BME280_humidity;BME280_pressure;Samples;Min_cycle;Max_cycle;Signal;HPM_P1;HPM_P2
2023/06/30 00:00:12;;;;;;;24.00;15.80;;;;;;;18.32;97.76;100477.37;107316;1256;72645;-68
2023/06/30 00:02:41;;;;;;;23.80;16.00;;;;;;;18.30;98.07;100481.08;106947;1256;61323;-67
2023/06/30 00:05:09;;;;;;;20.70;15.20;;;;;;;18.28;98.05;100483.45;107467;1256;61473;-70
2023/06/30 00:07:37;;;;;;;24.90;16.20;;;;;;;18.25;98.10;100481.28;107813;1259;75779;-68
2023/06/30 00:10:06;;;;;;;21.80;15.40;;;;;;;18.23;98.14;100483.48;107565;1257;71060;-69
2023/06/30 00:12:33;;;;;;;23.00;15.40;;;;;;;18.20;98.36;100484.45;108385;1256;71481;-69
2023/06/30 00:15:00;;;;;;;22.80;16.10;;;;;;;18.18;98.43;100485.38;106855;1257;62061;-69
2023/06/30 00:17:27;;;;;;;22.90;15.90;;;;;;;18.15;98.63;100482.33;107674;1256;59680;-70
2023/06/30 00:19:57;;;;;;;23.00;16.30;;;;;;;18.13;98.82;100478.56;107125;1256;73414;-68
2023/06/30 00:22:25;;;;;;;22.20;16.40;;;;;;;18.11;99.04;100476.53;107338;1256;72201;-69
2023/06/30 00:24:55;;;;;;;24.00;15.90;;;;;;;18.10;99.14;100475.17;107424;1258;72594;-69
2023/06/30 00:27:23;;;;;;;23.00;15.80;;;;;;;18.11;99.30;100473.67;107542;1256;61171;-71
2023/06/30 00:29:50;;;;;;;23.20;16.20;;;;;;;18.11;99.35;100475.45;107143;1256;61490;-71
2023/06/30 00:32:17;;;;;;;25.90;17.30;;;;;;;18.10;99.46;100471.40;107238;1256;72689;-70
2023/06/30 00:34:44;;;;;;;26.10;16.40;;;;;;;18.09;99.58;100473.58;107170;1257;71230;-68
2023/06/30 00:37:10;;;;;;;23.20;16.40;;;;;;;18.09;99.63;100470.78;107131;1259;71690;-70
2023/06/30 00:39:37;;;;;;;22.40;16.80;;;;;;;18.06;99.80;100465.77;107515;1257;61501;-69
2023/06/30 00:42:04;;;;;;;23.30;16.80;;;;;;;18.02;99.93;100463.04;107335;1257;492406;-69
2023/06/30 00:44:31;;;;;;;24.80;17.20;;;;;;;17.99;99.92;100462.95;106837;1257;73855;-69
2023/06/30 00:47:00;;;;;;;24.80;17.30;;;;;;;17.96;100.00;100464.06;106581;1257;69963;-69
2023/06/30 00:49:28;;;;;;;25.50;17.50;;;;;;;17.95;100.00;100466.82;106653;1260;72818;-69
2023/06/30 00:51:55;;;;;;;25.30;17.40;;;;;;;17.94;100.00;100466.00;106262;1257;62153;-69
2023/06/30 00:54:23;;;;;;;26.20;17.20;;;;;;;17.91;100.00;100457.63;106130;1257;61222;-69
2023/06/30 00:56:49;;;;;;;26.60;17.40;;;;;;;17.89;100.00;100457.30;106990;1261;73559;-69
2023/06/30 00:59:16;;;;;;;25.50;17.30;;;;;;;17.84;100.00;100454.59;106713;1256;69924;-69
2023/06/30 01:01:49;;;;;;;26.20;17.10;;;;;;;17.83;100.00;100447.05;106944;1256;71834;-70
2023/06/30 01:04:35;;;;;;;26.90;17.10;;;;;;;17.82;100.00;100446.15;107719;1256;61293;-70
2023/06/30 01:07:11;;;;;;;25.40;17.40;;;;;;;17.78;100.00;100442.55;106675;1257;61570;-69
2023/06/30 01:09:44;;;;;;;27.50;17.40;;;;;;;17.76;100.00;100440.05;106449;1256;74612;-69
2023/06/30 01:12:10;;;;;;;30.60;18.20;;;;;;;17.76;100.00;100444.40;106342;1258;71134;-69
2023/06/30 01:14:38;;;;;;;27.80;18.40;;;;;;;17.76;100.00;100451.44;106618;1257;71830;-70
2023/06/30 01:17:07;;;;;;;28.40;18.50;;;;;;;17.76;100.00;100454.71;106912;1259;62355;-68
2023/06/30 01:19:38;;;;;;;26.40;18.60;;;;;;;17.77;100.00;100453.64;107108;1257;60471;-69
2023/06/30 01:22:17;;;;;;;28.60;17.70;;;;;;;17.78;100.00;100453.08;106086;1256;74775;-68
2023/06/30 01:24:46;;;;;;;26.80;18.10;;;;;;;17.80;100.00;100455.19;107275;1256;70512;-69
2023/06/30 01:27:14;;;;;;;27.20;19.10;;;;;;;17.81;100.00;100454.60;106392;1256;71511;-69
2023/06/30 01:29:42;;;;;;;29.10;19.20;;;;;;;17.82;100.00;100454.72;106395;1257;61642;-68
2023/06/30 01:32:09;;;;;;;29.90;20.10;;;;;;;17.80;100.00;100454.90;106753;1260;61250;-69
2023/06/30 01:34:36;;;;;;;27.50;18.70;;;;;;;17.80;100.00;100452.35;106496;1258;72520;-68
2023/06/30 01:37:03;;;;;;;30.30;19.70;;;;;;;17.80;100.00;100450.95;106457;1257;69112;-69
2023/06/30 01:39:30;;;;;;;30.50;20.10;;;;;;;17.79;100.00;100451.70;107115;1262;72817;-68
2023/06/30 01:41:57;;;;;;;32.00;20.50;;;;;;;17.79;100.00;100451.85;106939;1260;61234;-69
2023/06/30 01:44:24;;;;;;;31.70;20.70;;;;;;;17.80;100.00;100444.09;106255;1257;61472;-69
2023/06/30 01:46:51;;;;;;;31.50;21.10;;;;;;;17.80;100.00;100447.42;106398;1257;75259;-68
2023/06/30 01:49:18;;;;;;;31.50;21.40;;;;;;;17.82;100.00;100456.54;106242;1260;71153;-69
2023/06/30 01:51:45;;;;;;;32.40;21.90;;;;;;;17.82;100.00;100458.98;106374;1257;72700;-68
2023/06/30 01:54:12;;;;;;;34.20;22.60;;;;;;;17.82;100.00;100452.33;106251;1258;62035;-69
2023/06/30 01:56:47;;;;;;;34.50;23.20;;;;;;;17.82;100.00;100454.39;106513;1262;61250;-69
2023/06/30 01:59:15;;;;;;;34.00;22.70;;;;;;;17.82;100.00;100450.10;107349;1256;72786;-69
2023/06/30 02:01:41;;;;;;;35.90;24.30;;;;;;;17.81;100.00;100444.40;107230;1256;70609;-69
2023/06/30 02:04:11;;;;;;;34.90;23.20;;;;;;;17.81;100.00;100443.88;106424;1258;71467;-69
2023/06/30 02:06:38;;;;;;;36.50;23.70;;;;;;;17.83;100.00;100442.42;106657;1260;61369;-69
2023/06/30 02:09:05;;;;;;;33.10;22.90;;;;;;;17.85;100.00;100443.77;107372;1257;61354;-69
2023/06/30 02:11:32;;;;;;;36.80;23.80;;;;;;;17.85;100.00;100440.08;106347;1256;74408;-70
2023/06/30 02:13:59;;;;;;;34.10;24.20;;;;;;;17.86;100.00;100436.98;106132;1260;69999;-69
2023/06/30 02:16:25;;;;;;;33.30;23.80;;;;;;;17.85;100.00;100439.22;106116;1261;71515;-70
2023/06/30 02:18:54;;;;;;;37.10;23.60;;;;;;;17.85;100.00;100443.66;106860;1256;61309;-69
2023/06/30 02:21:22;;;;;;;37.50;24.70;;;;;;;17.85;100.00;100439.27;107335;1256;61165;-68
2023/06/30 02:23:49;;;;;;;35.30;24.20;;;;;;;17.84;100.00;100442.36;106372;1261;73567;-68
2023/06/30 02:26:16;;;;;;;37.50;23.80;;;;;;;17.84;100.00;100440.42;106171;1261;70044;-68
2023/06/30 02:28:42;;;;;;;37.40;24.10;;;;;;;17.85;100.00;100438.67;107044;1257;71477;-70
2023/06/30 02:31:09;;;;;;;38.90;24.90;;;;;;;17.89;100.00;100437.77;106754;1257;61191;-68
2023/06/30 02:33:37;;;;;;;34.90;22.90;;;;;;;17.95;100.00;100438.90;106041;1256;61365;-70
2023/06/30 02:36:04;;;;;;;33.80;22.40;;;;;;;17.95;100.00;100441.50;106048;1260;74633;-70
2023/06/30 02:38:31;;;;;;;34.30;21.90;;;;;;;17.93;100.00;100445.85;106523;1257;70682;-70
2023/06/30 02:40:58;;;;;;;34.90;22.50;;;;;;;17.92;100.00;100453.77;107601;1257;72776;-70
2023/06/30 02:43:25;;;;;;;34.30;22.00;;;;;;;17.90;100.00;100448.10;106133;1262;61888;-69
2023/06/30 02:45:52;;;;;;;32.40;21.80;;;;;;;17.89;100.00;100448.19;106321;1260;61250;-70
2023/06/30 02:48:18;;;;;;;30.00;20.30;;;;;;;17.90;100.00;100442.69;106455;1258;74656;-70
2023/06/30 02:50:45;;;;;;;32.60;21.20;;;;;;;17.89;100.00;100441.64;106565;1256;69541;-70
2023/06/30 02:53:12;;;;;;;32.30;21.40;;;;;;;17.88;100.00;100439.08;106825;1261;71101;-69
2023/06/30 02:55:38;;;;;;;31.10;20.90;;;;;;;17.87;100.00;100439.30;106298;1260;61827;-69
2023/06/30 02:58:05;;;;;;;32.60;21.10;;;;;;;17.86;100.00;100442.50;107076;1257;61284;-69
2023/06/30 03:00:33;;;;;;;31.40;20.30;;;;;;;17.83;100.00;100444.65;106212;1262;72488;-70
2023/06/30 03:03:00;;;;;;;31.30;20.40;;;;;;;17.79;100.00;100438.45;106535;1261;71119;-69
2023/06/30 03:05:28;;;;;;;31.90;20.80;;;;;;;17.76;100.00;100441.05;106517;1257;72400;-68
2023/06/30 03:07:55;;;;;;;30.70;19.00;;;;;;;17.74;100.00;100440.66;106476;1257;61782;-68
2023/06/30 03:10:22;;;;;;;28.00;18.40;;;;;;;17.70;100.00;100438.33;106650;1259;61362;-70
2023/06/30 03:12:49;;;;;;;26.90;17.80;;;;;;;17.67;100.00;100445.80;106452;1260;73440;-68
2023/06/30 03:15:15;;;;;;;32.20;19.40;;;;;;;17.64;100.00;100438.63;107092;1257;70058;-69
2023/06/30 03:17:42;;;;;;;28.70;18.30;;;;;;;17.62;100.00;100433.16;106083;1257;71432;-69
2023/06/30 03:20:12;;;;;;;26.10;18.20;;;;;;;17.61;100.00;100433.47;106254;1257;61233;-68
2023/06/30 03:22:40;;;;;;;26.30;17.80;;;;;;;17.61;100.00;100428.89;106364;1257;62435;-70
2023/06/30 03:25:08;;;;;;;27.60;16.20;;;;;;;17.62;100.00;100426.77;107102;1260;74707;-70
2023/06/30 03:27:35;;;;;;;25.60;17.10;;;;;;;17.60;100.00;100436.12;106809;1259;70651;-69
2023/06/30 03:30:04;;;;;;;23.80;15.60;;;;;;;17.59;100.00;100434.56;106072;1260;72094;-70
2023/06/30 03:32:31;;;;;;;24.80;16.00;;;;;;;17.56;100.00;100436.50;106705;1260;62151;-70
2023/06/30 03:35:03;;;;;;;22.70;16.10;;;;;;;17.54;100.00;100433.59;107126;1257;61357;-69
2023/06/30 03:37:30;;;;;;;21.20;14.40;;;;;;;17.52;100.00;100437.36;106527;1257;73533;-69
2023/06/30 03:40:00;;;;;;;21.30;14.60;;;;;;;17.50;100.00;100437.41;106313;1261;71147;-69
2023/06/30 03:42:27;;;;;;;21.60;14.40;;;;;;;17.44;100.00;100436.39;107049;1261;71775;-70
2023/06/30 03:44:54;;;;;;;22.30;14.30;;;;;;;17.41;100.00;100438.02;106096;1262;61776;-69
2023/06/30 03:47:20;;;;;;;22.20;14.30;;;;;;;17.39;100.00;100437.38;106494;1260;61183;-69
2023/06/30 03:49:47;;;;;;;21.30;14.80;;;;;;;17.40;100.00;100432.73;106608;1257;73516;-69
2023/06/30 03:52:14;;;;;;;20.50;14.50;;;;;;;17.38;100.00;100440.50;107051;1257;71287;-69
2023/06/30 03:54:42;;;;;;;19.00;13.10;;;;;;;17.34;100.00;100441.95;107105;1257;60368;-69
2023/06/30 03:57:08;;;;;;;21.30;13.70;;;;;;;17.30;100.00;100439.16;106262;1261;61280;-70
2023/06/30 03:59:35;;;;;;;19.70;12.60;;;;;;;17.27;100.00;100436.14;107357;1257;61235;-69
2023/06/30 04:02:02;;;;;;;17.70;12.50;;;;;;;17.23;100.00;100437.20;106224;1257;73489;-69
2023/06/30 04:04:29;;;;;;;19.00;11.80;;;;;;;17.22;100.00;100437.56;107014;1260;71278;-71
2023/06/30 04:06:56;;;;;;;14.40;9.80;;;;;;;17.23;100.00;100436.07;106643;1262;72711;-69
2023/06/30 04:09:23;;;;;;;16.80;10.30;;;;;;;17.21;100.00;100433.48;107031;1257;61333;-69
2023/06/30 04:11:50;;;;;;;15.50;10.20;;;;;;;17.18;100.00;100434.92;106896;1259;61598;-69
2023/06/30 04:14:16;;;;;;;15.00;9.10;;;;;;;17.16;100.00;100436.15;106024;1262;73518;-69
2023/06/30 04:16:43;;;;;;;12.20;9.30;;;;;;;17.14;100.00;100436.46;106750;1256;72151;-69
2023/06/30 04:19:10;;;;;;;14.10;10.30;;;;;;;17.09;100.00;100441.98;106787;1257;71380;-70
2023/06/30 04:21:37;;;;;;;18.10;13.30;;;;;;;17.05;100.00;100442.96;106381;1257;61255;-72
2023/06/30 04:24:04;;;;;;;17.90;14.20;;;;;;;17.01;100.00;100441.60;106219;1258;61292;-71
2023/06/30 04:26:31;;;;;;;21.40;15.90;;;;;;;16.97;100.00;100445.36;106974;1257;73612;-71
2023/06/30 04:28:58;;;;;;;17.40;15.50;;;;;;;16.94;100.00;100443.21;106672;1257;70468;-70
2023/06/30 04:31:26;;;;;;;21.30;16.00;;;;;;;16.92;100.00;100445.73;107320;1257;72713;-77
2023/06/30 04:33:54;;;;;;;19.90;16.20;;;;;;;16.90;100.00;100443.70;106610;1257;61824;-76
2023/06/30 04:36:20;;;;;;;19.50;15.10;;;;;;;16.89;100.00;100445.89;106820;1261;61133;-72
2023/06/30 04:38:48;;;;;;;18.40;14.30;;;;;;;16.88;100.00;100443.64;106429;1257;73684;-73
2023/06/30 04:41:15;;;;;;;16.80;13.30;;;;;;;16.88;100.00;100443.48;106430;1260;71232;-73
2023/06/30 04:43:45;;;;;;;16.70;12.10;;;;;;;16.85;100.00;100448.00;106757;1260;73201;-73
2023/06/30 04:46:12;;;;;;;15.00;12.10;;;;;;;16.82;100.00;100448.19;106413;1257;61378;-71
2023/06/30 04:48:40;;;;;;;15.50;12.20;;;;;;;16.82;100.00;100447.58;107523;1262;61324;-74
2023/06/30 04:51:07;;;;;;;14.30;12.30;;;;;;;16.81;100.00;100451.91;106424;1257;74725;-75
2023/06/30 04:53:34;;;;;;;15.60;12.10;;;;;;;16.80;100.00;100451.95;107140;1260;70191;-73
2023/06/30 04:56:00;;;;;;;15.80;11.90;;;;;;;16.78;100.00;100447.39;106669;1261;72041;-71
2023/06/30 04:58:27;;;;;;;16.00;12.70;;;;;;;16.77;100.00;100454.20;106326;1260;61240;-75
2023/06/30 05:00:55;;;;;;;13.40;11.90;;;;;;;16.71;100.00;100457.47;106562;1265;61190;-73
2023/06/30 05:03:22;;;;;;;14.30;12.00;;;;;;;16.62;100.00;100459.27;107315;1260;73468;-75
2023/06/30 05:05:48;;;;;;;13.30;10.70;;;;;;;16.52;100.00;100462.17;106785;1263;71072;-72
2023/06/30 05:08:15;;;;;;;13.70;10.40;;;;;;;16.42;100.00;100471.41;107051;1260;71564;-71
2023/06/30 05:10:42;;;;;;;13.20;9.80;;;;;;;16.30;100.00;100488.63;106659;1258;61330;-74
2023/06/30 05:13:09;;;;;;;14.10;10.60;;;;;;;16.22;100.00;100488.31;107048;1258;61335;-73
2023/06/30 05:15:36;;;;;;;16.10;10.70;;;;;;;16.17;100.00;100498.48;106137;1262;73516;-72
2023/06/30 05:18:05;;;;;;;19.30;11.40;;;;;;;16.02;100.00;100493.81;106243;1260;69954;-77
2023/06/30 05:20:33;;;;;;;18.00;11.20;;;;;;;15.88;100.00;100485.92;106258;1258;71603;-82
2023/06/30 05:23:00;;;;;;;16.10;11.50;;;;;;;15.77;100.00;100483.05;107135;1256;61297;-79
2023/06/30 05:25:27;;;;;;;16.70;9.90;;;;;;;15.67;100.00;100483.32;107258;1256;60766;-76
2023/06/30 05:27:55;;;;;;;14.40;10.50;;;;;;;15.60;100.00;100478.13;106631;1260;73332;-75
2023/06/30 05:30:21;;;;;;;12.80;10.10;;;;;;;15.56;100.00;100472.67;106897;1260;70105;-76
2023/06/30 05:32:48;;;;;;;12.90;10.00;;;;;;;15.55;100.00;100465.86;106998;1260;71616;-74
2023/06/30 05:35:15;;;;;;;15.90;10.70;;;;;;;15.56;100.00;100461.25;106344;1258;61975;-76
2023/06/30 05:37:42;;;;;;;13.90;10.50;;;;;;;15.57;100.00;100459.89;106306;1257;61259;-73
2023/06/30 05:40:09;;;;;;;13.60;10.30;;;;;;;15.57;100.00;100464.24;106759;1256;74091;-74
2023/06/30 05:42:36;;;;;;;13.90;10.60;;;;;;;15.56;100.00;100469.02;107128;1260;71745;-75
2023/06/30 05:45:03;;;;;;;13.90;10.10;;;;;;;15.57;100.00;100472.30;106743;1256;73398;-75
2023/06/30 05:47:31;;;;;;;16.80;10.10;;;;;;;15.58;100.00;100476.21;107487;1257;61289;-71
2023/06/30 05:49:58;;;;;;;12.30;9.70;;;;;;;15.60;100.00;100473.27;106435;1257;61190;-71
2023/06/30 05:52:27;;;;;;;14.80;9.60;;;;;;;15.62;100.00;100476.42;106165;1261;74701;-73
2023/06/30 05:54:54;;;;;;;14.60;9.80;;;;;;;15.65;100.00;100471.03;107117;1260;71379;-74
2023/06/30 05:57:20;;;;;;;15.40;9.90;;;;;;;15.69;100.00;100464.75;106366;1256;72682;-73
2023/06/30 05:59:48;;;;;;;11.40;9.20;;;;;;;15.73;100.00;100471.18;106795;1257;62117;-73
2023/06/30 06:02:15;;;;;;;11.70;8.90;;;;;;;15.73;100.00;100479.59;106962;1260;60323;-74
2023/06/30 06:04:42;;;;;;;14.00;8.60;;;;;;;15.71;100.00;100480.89;107093;1257;74685;-75
2023/06/30 06:07:10;;;;;;;13.80;8.60;;;;;;;15.72;100.00;100480.64;106243;1263;71286;-74
2023/06/30 06:09:38;;;;;;;14.30;8.60;;;;;;;15.73;100.00;100487.48;107048;1257;71252;-75
2023/06/30 06:12:05;;;;;;;14.30;8.40;;;;;;;15.73;100.00;100490.61;106272;1260;62010;-73
2023/06/30 06:14:32;;;;;;;12.60;8.20;;;;;;;15.73;100.00;100492.38;106239;1257;61293;-74
2023/06/30 06:16:58;;;;;;;13.10;7.40;;;;;;;15.72;100.00;100494.43;107061;1257;74685;-71
2023/06/30 06:19:26;;;;;;;10.80;8.20;;;;;;;15.70;100.00;100495.11;107434;1257;71662;-73
2023/06/30 06:21:53;;;;;;;10.60;8.40;;;;;;;15.71;100.00;100499.23;107751;1261;72435;-74
2023/06/30 06:24:20;;;;;;;12.70;7.90;;;;;;;15.71;100.00;100497.80;107777;1261;62285;-73
2023/06/30 06:26:47;;;;;;;12.30;8.50;;;;;;;15.74;100.00;100499.09;107105;1257;61205;-76
2023/06/30 06:29:18;;;;;;;11.60;8.30;;;;;;;15.73;100.00;100504.91;107504;1257;75353;-74
2023/06/30 06:31:46;;;;;;;13.20;8.10;;;;;;;15.72;100.00;100506.77;106567;1257;70320;-73
2023/06/30 06:34:13;;;;;;;11.50;8.50;;;;;;;15.72;100.00;100515.37;106331;1262;72678;-73
2023/06/30 06:36:39;;;;;;;11.10;8.80;;;;;;;15.71;100.00;100518.89;107372;1257;62157;-75
2023/06/30 06:39:07;;;;;;;22.90;15.90;;;;;;;15.71;100.00;100516.39;106987;1257;61272;-73
2023/06/30 06:41:33;;;;;;;30.70;19.70;;;;;;;15.70;100.00;100510.22;106833;1257;73539;-74
2023/06/30 06:44:01;;;;;;;26.60;16.20;;;;;;;15.73;100.00;100509.17;106147;1257;71357;-73
2023/06/30 06:46:28;;;;;;;34.70;21.00;;;;;;;15.76;100.00;100512.23;106472;1257;71529;-73
2023/06/30 06:48:56;;;;;;;13.10;10.20;;;;;;;15.79;100.00;100510.13;106403;1257;61669;-75
2023/06/30 06:51:23;;;;;;;20.80;14.20;;;;;;;15.79;100.00;100509.75;106629;1257;61262;-75
2023/06/30 06:53:53;;;;;;;18.70;13.10;;;;;;;15.80;100.00;100509.91;106701;1257;74073;-73
2023/06/30 06:56:20;;;;;;;14.30;11.00;;;;;;;15.83;100.00;100501.91;107425;1257;70338;-73
2023/06/30 06:58:47;;;;;;;18.20;12.60;;;;;;;15.86;100.00;100507.81;107104;1257;72457;-74
2023/06/30 07:01:14;;;;;;;13.10;10.90;;;;;;;15.88;100.00;100513.33;106623;1257;62273;-73
2023/06/30 07:03:41;;;;;;;15.40;12.70;;;;;;;15.86;100.00;100516.00;106187;1257;61876;-72
2023/06/30 07:06:08;;;;;;;13.40;10.70;;;;;;;15.88;100.00;100519.65;106186;1260;74664;-74
2023/06/30 07:08:36;;;;;;;24.00;17.80;;;;;;;15.87;100.00;100514.40;106939;1257;71781;-74
2023/06/30 07:11:04;;;;;;;16.10;12.20;;;;;;;15.92;100.00;100512.23;106754;1257;71549;-73
2023/06/30 07:13:31;;;;;;;16.90;11.00;;;;;;;15.97;100.00;100496.67;106441;1256;61747;-73
2023/06/30 07:15:59;;;;;;;11.60;10.00;;;;;;;16.06;100.00;100500.25;107368;1257;61228;-75
2023/06/30 07:18:26;;;;;;;14.50;10.30;;;;;;;16.11;100.00;100493.46;107159;1260;73726;-74
2023/06/30 07:20:54;;;;;;;34.40;25.50;;;;;;;16.21;100.00;100487.51;106509;1257;72818;-72
2023/06/30 07:23:21;;;;;;;13.40;10.30;;;;;;;16.35;100.00;100486.20;107004;1257;71909;-73
2023/06/30 07:25:52;;;;;;;14.20;11.70;;;;;;;16.45;100.00;100492.38;107530;1257;60606;-71
2023/06/30 07:28:19;;;;;;;12.90;10.10;;;;;;;16.52;100.00;100502.71;106531;1257;61148;-73
2023/06/30 07:30:46;;;;;;;14.90;11.70;;;;;;;16.51;100.00;100512.31;106600;1257;73010;-74
2023/06/30 07:33:13;;;;;;;11.50;10.10;;;;;;;16.50;100.00;100512.68;107018;1257;69997;-74
2023/06/30 07:35:40;;;;;;;12.20;10.30;;;;;;;16.54;100.00;100517.40;107592;1263;72795;-74
2023/06/30 07:38:07;;;;;;;41.30;31.70;;;;;;;16.57;100.00;100510.86;106293;1263;61238;-73
2023/06/30 07:40:34;;;;;;;22.30;18.60;;;;;;;16.64;100.00;100510.77;106736;1257;61276;-74
2023/06/30 07:43:04;;;;;;;11.00;9.90;;;;;;;16.77;100.00;100507.98;106511;1257;73807;-74
2023/06/30 07:45:31;;;;;;;11.30;9.70;;;;;;;16.87;100.00;100507.90;106538;1257;69948;-74
2023/06/30 07:47:58;;;;;;;13.40;10.30;;;;;;;17.00;100.00;100505.89;106776;1257;71135;-75
2023/06/30 07:50:25;;;;;;;13.30;10.60;;;;;;;17.11;100.00;100508.64;107366;1262;60822;-74
2023/06/30 07:52:52;;;;;;;13.30;10.00;;;;;;;17.25;100.00;100510.48;107184;1256;61215;-73
2023/06/30 07:55:19;;;;;;;18.20;14.90;;;;;;;17.40;100.00;100511.05;107231;1256;61362;-73
2023/06/30 07:57:48;;;;;;;10.70;9.50;;;;;;;17.51;100.00;100520.94;106743;1257;69509;-74
2023/06/30 08:00:18;;;;;;;10.30;8.70;;;;;;;17.50;100.00;100526.90;106672;1257;72673;-73
2023/06/30 08:02:46;;;;;;;10.90;9.30;;;;;;;17.54;100.00;100524.13;106660;1257;61342;-73
2023/06/30 08:05:13;;;;;;;9.80;8.80;;;;;;;17.52;99.92;100521.83;106509;1257;61250;-75
2023/06/30 08:07:40;;;;;;;9.00;8.10;;;;;;;17.51;99.77;100525.77;107425;1261;73165;-71
2023/06/30 08:10:16;;;;;;;12.50;10.70;;;;;;;17.48;99.66;100525.63;107184;1257;71124;-72
2023/06/30 08:12:43;;;;;;;11.40;10.10;;;;;;;17.52;100.00;100520.89;106754;1256;71176;-72
2023/06/30 08:15:10;;;;;;;11.00;8.70;;;;;;;17.60;100.00;100527.52;106945;1257;61402;-67
2023/06/30 08:17:37;;;;;;;13.80;11.50;;;;;;;17.63;99.76;100528.69;106883;1257;60536;-69
2023/06/30 08:20:23;;;;;;;10.40;9.30;;;;;;;17.64;99.19;100526.67;106663;1256;74047;-67
2023/06/30 08:22:51;;;;;;;10.10;8.80;;;;;;;17.70;99.75;100525.54;106422;1260;71684;-67
2023/06/30 08:25:22;;;;;;;8.40;7.60;;;;;;;17.78;99.28;100524.20;106571;1257;72831;-64
2023/06/30 08:27:49;;;;;;;8.60;7.40;;;;;;;17.82;97.40;100528.52;107055;1257;61382;-66
2023/06/30 08:30:15;;;;;;;8.10;6.60;;;;;;;17.87;96.29;100526.27;106914;1257;61741;-66
2023/06/30 08:32:42;;;;;;;9.50;6.80;;;;;;;17.90;95.99;100523.77;107620;1257;61253;-66
2023/06/30 08:35:10;;;;;;;10.80;9.20;;;;;;;17.91;95.14;100524.34;107420;1257;69760;-65
2023/06/30 08:37:41;;;;;;;8.80;6.50;;;;;;;17.95;94.27;100527.59;106624;1251;164540;-61
2023/06/30 08:40:09;;;;;;;7.70;6.10;;;;;;;18.01;93.24;100538.75;107213;1258;61991;-63
2023/06/30 08:42:40;;;;;;;8.50;7.10;;;;;;;18.09;93.62;100541.34;106842;1257;61246;-63
2023/06/30 08:45:10;;;;;;;6.30;5.60;;;;;;;18.24;93.30;100540.32;107576;1257;74777;-61
2023/06/30 08:47:37;;;;;;;6.80;6.10;;;;;;;18.39;92.83;100535.21;108686;1257;71385;-59
2023/06/30 08:50:09;;;;;;;6.80;5.40;;;;;;;18.55;91.77;100532.88;107950;1258;72033;-59
2023/06/30 08:52:39;;;;;;;6.90;5.80;;;;;;;18.73;90.94;100530.19;107697;1255;61148;-57
2023/06/30 08:55:10;;;;;;;7.10;5.20;;;;;;;18.94;91.16;100534.23;107814;1256;61237;-56
2023/06/30 08:57:41;;;;;;;5.70;3.80;;;;;;;19.04;87.49;100538.94;107086;1253;174391;-65
2023/06/30 09:00:08;;;;;;;7.70;6.00;;;;;;;19.02;85.49;100539.77;107417;1260;69661;-65
2023/06/30 09:02:36;;;;;;;4.40;3.30;;;;;;;19.01;86.45;100533.16;106950;1257;73018;-65
2023/06/30 09:05:04;;;;;;;5.20;4.00;;;;;;;18.95;85.04;100530.40;107077;1256;61324;-66
2023/06/30 09:07:52;;;;;;;6.10;4.20;;;;;;;18.86;84.60;100527.92;107202;1257;61247;-66
2023/06/30 09:10:21;;;;;;;6.00;4.20;;;;;;;18.74;85.40;100526.71;107052;1258;74673;-65
2023/06/30 09:12:51;;;;;;;6.00;4.20;;;;;;;18.64;85.95;100522.12;107645;1258;71168;-65
2023/06/30 09:15:19;;;;;;;5.20;4.60;;;;;;;18.57;87.14;100526.73;107290;1257;71038;-65
2023/06/30 09:17:46;;;;;;;6.90;4.90;;;;;;;18.53;87.35;100527.39;108927;1257;60835;-66
2023/06/30 09:20:13;;;;;;;6.90;5.30;;;;;;;18.46;88.43;100532.98;109003;1256;59471;-66
2023/06/30 09:22:40;;;;;;;5.90;4.50;;;;;;;18.42;89.11;100536.20;108891;1256;73741;-66
2023/06/30 09:25:24;;;;;;;8.30;5.90;;;;;;;18.37;88.59;100534.64;108666;1257;71226;-66
2023/06/30 09:27:52;;;;;;;6.30;5.00;;;;;;;18.30;88.35;100532.69;108464;1257;72276;-66
2023/06/30 09:30:18;;;;;;;6.60;5.10;;;;;;;18.29;88.59;100530.73;106301;1255;61370;-65
2023/06/30 09:32:45;;;;;;;7.50;5.60;;;;;;;18.39;89.04;100528.06;107078;1260;61279;-67
2023/06/30 09:35:16;;;;;;;7.20;4.80;;;;;;;18.65;90.15;100525.81;106793;1257;74981;-69
2023/06/30 09:37:44;;;;;;;5.30;4.00;;;;;;;18.97;87.44;100527.02;106684;1260;70005;-68
2023/06/30 09:40:13;;;;;;;6.70;5.00;;;;;;;19.28;85.35;100528.31;107378;1260;70816;-67
2023/06/30 09:42:45;;;;;;;5.30;3.90;;;;;;;19.58;84.60;100526.67;107262;1259;61282;-66
2023/06/30 09:45:13;;;;;;;4.90;3.70;;;;;;;19.89;81.85;100518.30;106930;1257;61365;-68
2023/06/30 09:47:41;;;;;;;7.50;4.00;;;;;;;20.19;80.81;100512.85;106583;1260;74726;-67
2023/06/30 09:50:09;;;;;;;5.70;3.50;;;;;;;20.62;80.80;100509.11;107573;1257;69982;-67
2023/06/30 09:52:37;;;;;;;5.80;3.50;;;;;;;21.03;78.13;100509.12;107014;1257;72653;-66
2023/06/30 09:55:10;;;;;;;5.80;3.40;;;;;;;21.33;76.68;100509.08;106526;1257;61204;-67
2023/06/30 09:57:41;;;;;;;6.40;3.30;;;;;;;21.61;75.63;100508.72;107345;1256;59285;-67
2023/06/30 10:00:08;;;;;;;4.80;3.10;;;;;;;21.78;74.46;100506.10;107258;1256;73550;-67
2023/06/30 10:03:05;;;;;;;5.30;3.60;;;;;;;21.72;71.61;100503.02;106638;1257;69749;-67
2023/06/30 10:05:32;;;;;;;5.40;3.40;;;;;;;21.48;71.95;100507.98;106596;1257;72571;-66
2023/06/30 10:08:02;;;;;;;6.30;4.40;;;;;;;21.29;72.53;100510.48;106712;1261;61229;-65
2023/06/30 10:10:29;;;;;;;5.50;4.50;;;;;;;21.15;72.71;100514.83;106498;1256;61732;-68
2023/06/30 10:12:58;;;;;;;5.00;4.10;;;;;;;20.96;72.88;100520.87;106881;1257;72505;-66
2023/06/30 10:15:26;;;;;;;5.90;3.70;;;;;;;20.92;73.59;100517.59;106905;1260;71252;-67
2023/06/30 10:17:59;;;;;;;5.30;3.90;;;;;;;20.96;74.49;100520.23;107096;1258;72830;-67
2023/06/30 10:20:26;;;;;;;6.90;4.90;;;;;;;21.12;74.91;100517.75;106440;1256;61288;-68
2023/06/30 10:23:13;;;;;;;7.00;5.00;;;;;;;21.35;74.81;100519.30;106417;1256;61352;-68
2023/06/30 10:25:40;;;;;;;6.20;4.30;;;;;;;21.49;73.57;100520.13;106524;1257;73529;-69
2023/06/30 10:28:08;;;;;;;5.40;4.30;;;;;;;21.54;71.38;100514.80;106665;1258;72093;-68
2023/06/30 10:30:36;;;;;;;7.20;6.30;;;;;;;21.55;70.26;100514.49;108248;1257;70636;-68
2023/06/30 10:33:03;;;;;;;8.30;4.80;;;;;;;21.60;71.08;100507.69;108744;1257;60771;-69
2023/06/30 10:35:31;;;;;;;8.30;4.50;;;;;;;21.66;71.57;100504.35;108772;1256;60635;-69
2023/06/30 10:37:59;;;;;;;7.70;4.50;;;;;;;21.73;71.32;100505.94;108527;1256;73497;-69
2023/06/30 10:40:27;;;;;;;16.00;12.50;;;;;;;21.74;70.85;100508.21;107471;1257;69868;-69
2023/06/30 10:42:55;;;;;;;7.80;5.30;;;;;;;21.72;70.73;100510.37;106741;1257;71238;-67
2023/06/30 10:45:28;;;;;;;9.20;6.90;;;;;;;21.79;70.42;100504.22;106459;1257;61994;-68
2023/06/30 10:47:55;;;;;;;10.10;6.70;;;;;;;21.88;70.46;100504.91;108702;1257;61218;-67
2023/06/30 10:50:22;;;;;;;5.30;3.60;;;;;;;21.87;68.62;100505.02;107243;1256;74482;-68
2023/06/30 10:52:53;;;;;;;5.80;4.00;;;;;;;21.79;68.64;100503.08;107317;1257;71183;-68
2023/06/30 10:55:22;;;;;;;6.40;4.40;;;;;;;21.59;68.71;100505.30;106486;1256;72678;-69
2023/06/30 10:57:51;;;;;;;7.10;3.80;;;;;;;21.58;69.87;100495.41;106653;1257;62211;-70
2023/06/30 11:00:20;;;;;;;7.60;6.40;;;;;;;21.67;69.94;100501.95;106569;1257;61768;-68
2023/06/30 11:02:49;;;;;;;6.10;4.00;;;;;;;21.78;69.47;100495.30;106662;1257;74655;-68
2023/06/30 11:05:22;;;;;;;5.50;4.20;;;;;;;22.00;69.20;100501.67;106958;1256;68979;-68